createdAt,value
2023-02-07T00:00:46.086Z,58.17
2023-02-07T00:01:46.092Z,56.56
2023-02-07T00:02:46.035Z,54.79
2023-02-07T00:03:46.025Z,57.52
2023-02-07T00:04:46.022Z,56.88
2023-02-07T00:05:46.025Z,59.46
2023-02-07T00:06:46.002Z,55.91
2023-02-07T00:07:45.993Z,55.27
2023-02-07T00:08:45.996Z,58.97
2023-02-07T00:09:45.977Z,61.07
2023-02-07T00:10:45.996Z,58.65
2023-02-07T00:11:45.958Z,55.59
2023-02-07T00:12:45.970Z,54.95
2023-02-07T00:13:45.955Z,55.91
2023-02-07T00:14:45.940Z,57.04
2023-02-07T00:15:45.952Z,58.81
2023-02-07T00:16:46.003Z,56.07
2023-02-07T00:17:45.914Z,58.17
2023-02-07T00:18:45.906Z,56.24
2023-02-07T00:19:45.892Z,55.59
2023-02-07T00:20:45.911Z,57.04
2023-02-07T00:21:45.872Z,56.40
2023-02-07T00:22:45.864Z,55.27
2023-02-07T00:23:45.885Z,57.36
2023-02-07T00:24:45.860Z,57.04
2023-02-07T00:25:45.865Z,55.59
2023-02-07T00:26:45.843Z,58.17
2023-02-07T00:27:45.940Z,58.33
2023-02-07T00:28:45.862Z,57.20
2023-02-07T00:29:45.803Z,58.17
2023-02-07T00:30:46.946Z,58.33
2023-02-07T00:31:45.841Z,55.75
2023-02-07T00:32:45.791Z,55.91
2023-02-07T00:33:45.783Z,55.27
2023-02-07T00:34:45.773Z,57.85
2023-02-07T00:35:45.780Z,59.14
2023-02-07T00:36:45.768Z,63.16
2023-02-07T00:37:45.750Z,58.01
2023-02-07T00:38:45.749Z,59.30
2023-02-07T00:39:45.734Z,56.40
2023-02-07T00:40:45.746Z,56.24
2023-02-07T00:41:45.719Z,58.33
2023-02-07T00:42:45.711Z,57.04
2023-02-07T00:43:45.693Z,61.87
2023-02-07T00:44:45.689Z,61.55
2023-02-07T00:45:45.731Z,56.56
2023-02-07T00:46:45.677Z,55.43
2023-02-07T00:47:45.670Z,58.33
2023-02-07T00:48:45.658Z,57.85
2023-02-07T00:49:45.646Z,57.85
2023-02-07T00:50:45.666Z,59.94
2023-02-07T00:51:45.633Z,57.36
2023-02-07T00:52:45.616Z,56.40
2023-02-07T00:53:45.620Z,55.59
2023-02-07T00:54:45.609Z,56.56
2023-02-07T00:55:45.634Z,57.52
2023-02-07T00:56:45.591Z,54.30
2023-02-07T00:57:45.570Z,53.66
2023-02-07T00:58:45.568Z,59.62
2023-02-07T00:59:45.551Z,60.75
2023-02-07T01:00:45.559Z,59.14
2023-02-07T01:01:45.560Z,62.84
2023-02-07T01:02:45.538Z,56.56
2023-02-07T01:03:45.529Z,58.65
2023-02-07T01:04:45.574Z,53.98
2023-02-07T01:05:45.542Z,54.30
2023-02-07T01:06:45.533Z,52.53
2023-02-07T01:07:45.496Z,57.20
2023-02-07T01:08:45.490Z,56.07
2023-02-07T01:09:45.485Z,57.20
2023-02-07T01:10:45.489Z,55.43
2023-02-07T01:11:45.488Z,52.85
2023-02-07T01:12:45.454Z,57.69
2023-02-07T01:13:45.455Z,56.88
2023-02-07T01:14:45.439Z,54.30
2023-02-07T01:15:45.435Z,55.59
2023-02-07T01:16:45.442Z,57.20
2023-02-07T01:17:45.409Z,57.36
2023-02-07T01:18:45.406Z,57.52
2023-02-07T01:19:45.399Z,53.17
2023-02-07T01:20:45.384Z,55.91
2023-02-07T01:21:45.397Z,55.11
2023-02-07T01:22:45.372Z,52.53
2023-02-07T01:23:45.363Z,53.82
2023-02-07T01:24:45.354Z,53.01
2023-02-07T01:25:45.352Z,60.10
2023-02-07T01:26:45.361Z,54.30
2023-02-07T01:27:45.420Z,55.59
2023-02-07T01:28:45.325Z,57.36
2023-02-07T01:29:45.310Z,56.88
2023-02-07T01:30:45.379Z,60.59
2023-02-07T01:31:45.419Z,61.07
2023-02-07T01:32:45.293Z,55.75
2023-02-07T01:33:45.282Z,59.94
2023-02-07T01:34:45.291Z,59.30
2023-02-07T01:35:45.254Z,58.17
2023-02-07T01:36:45.254Z,58.17
2023-02-07T01:37:45.244Z,60.42
2023-02-07T01:38:45.270Z,54.62
2023-02-07T01:39:45.253Z,58.97
2023-02-07T01:40:45.219Z,61.07
2023-02-07T01:41:45.212Z,57.69
2023-02-07T01:42:45.208Z,55.27
2023-02-07T01:43:45.190Z,56.24
2023-02-07T01:44:45.186Z,56.88
2023-02-07T01:45:46.167Z,60.75
2023-02-07T01:46:45.196Z,52.69
2023-02-07T01:47:45.153Z,55.75
2023-02-07T01:48:45.143Z,55.11
2023-02-07T01:49:45.137Z,58.01
2023-02-07T01:50:45.117Z,57.52
2023-02-07T01:51:45.138Z,54.62
2023-02-07T01:52:45.110Z,57.04
2023-02-07T01:53:45.099Z,58.97
2023-02-07T01:54:45.105Z,60.10
2023-02-07T01:55:45.073Z,55.75
2023-02-07T01:56:45.075Z,56.07
2023-02-07T01:57:45.067Z,57.85
2023-02-07T01:58:45.043Z,56.56
2023-02-07T01:59:45.060Z,54.95
2023-02-07T02:00:45.031Z,56.24
2023-02-07T02:01:45.061Z,55.59
2023-02-07T02:02:45.024Z,58.49
2023-02-07T02:03:45.002Z,63.65
2023-02-07T02:04:44.993Z,59.14
2023-02-07T02:05:44.985Z,58.01
2023-02-07T02:06:45.000Z,59.30
2023-02-07T02:07:44.963Z,57.36
2023-02-07T02:08:44.947Z,56.56
2023-02-07T02:09:44.945Z,54.79
2023-02-07T02:10:44.933Z,57.20
2023-02-07T02:11:44.940Z,58.01
2023-02-07T02:12:44.911Z,55.75
2023-02-07T02:13:44.905Z,56.88
2023-02-07T02:14:44.892Z,61.55
2023-02-07T02:15:44.903Z,59.78
2023-02-07T02:16:44.890Z,54.95
2023-02-07T02:17:45.874Z,58.01
2023-02-07T02:18:44.858Z,58.81
2023-02-07T02:19:44.842Z,60.75
2023-02-07T02:20:44.837Z,54.95
2023-02-07T02:21:44.845Z,56.88
2023-02-07T02:22:44.817Z,59.14
2023-02-07T02:23:44.813Z,57.20
2023-02-07T02:24:44.799Z,59.30
2023-02-07T02:25:44.783Z,55.91
2023-02-07T02:26:44.807Z,53.66
2023-02-07T02:27:44.785Z,55.59
2023-02-07T02:28:44.773Z,56.72
2023-02-07T02:29:44.764Z,56.24
2023-02-07T02:30:44.758Z,57.36
2023-02-07T02:31:44.830Z,58.97
2023-02-07T02:32:44.744Z,58.01
2023-02-07T02:33:44.717Z,54.79
2023-02-07T02:34:44.722Z,53.50
2023-02-07T02:35:44.701Z,56.24
2023-02-07T02:36:44.692Z,61.87
2023-02-07T02:37:44.713Z,62.20
2023-02-07T02:38:44.667Z,60.42
2023-02-07T02:39:44.666Z,58.33
2023-02-07T02:40:44.662Z,58.49
2023-02-07T02:41:44.652Z,60.42
2023-02-07T02:42:44.652Z,59.94
2023-02-07T02:43:44.626Z,55.27
2023-02-07T02:44:44.620Z,54.62
2023-02-07T02:45:44.607Z,54.46
2023-02-07T02:46:44.629Z,59.30
2023-02-07T02:47:44.627Z,55.75
2023-02-07T02:48:44.583Z,60.91
2023-02-07T02:49:44.568Z,59.94
2023-02-07T02:50:44.572Z,59.62
2023-02-07T02:51:44.549Z,59.46
2023-02-07T02:52:50.711Z,57.36
2023-02-07T02:53:46.541Z,58.49
2023-02-07T02:54:44.532Z,57.36
2023-02-07T02:55:44.507Z,60.91
2023-02-07T02:56:44.511Z,57.36
2023-02-07T02:57:44.513Z,59.62
2023-02-07T02:58:44.487Z,56.07
2023-02-07T02:59:44.489Z,61.39
2023-02-07T03:00:44.475Z,59.78
2023-02-07T03:01:44.517Z,63.49
2023-02-07T03:02:44.474Z,56.24
2023-02-07T03:03:44.457Z,61.39
2023-02-07T03:04:44.433Z,61.71
2023-02-07T03:05:44.435Z,58.17
2023-02-07T03:06:44.413Z,58.01
2023-02-07T03:07:45.434Z,56.56
2023-02-07T03:08:44.398Z,60.75
2023-02-07T03:09:44.413Z,62.04
2023-02-07T03:10:44.378Z,59.94
2023-02-07T03:11:44.361Z,61.07
2023-02-07T03:12:44.375Z,63.16
2023-02-07T03:13:44.349Z,60.59
2023-02-07T03:14:44.334Z,59.46
2023-02-07T03:15:44.319Z,62.52
2023-02-07T03:16:44.319Z,58.01
2023-02-07T03:17:44.348Z,63.16
2023-02-07T03:18:44.285Z,61.07
2023-02-07T03:19:45.300Z,62.52
2023-02-07T03:20:44.276Z,61.87
2023-02-07T03:21:44.268Z,62.36
2023-02-07T03:22:44.277Z,62.84
2023-02-07T03:23:44.252Z,58.01
2023-02-07T03:24:44.244Z,63.97
2023-02-07T03:25:44.234Z,62.68
2023-02-07T03:26:44.221Z,58.33
2023-02-07T03:27:44.227Z,60.59
2023-02-07T03:28:44.200Z,62.68
2023-02-07T03:29:44.192Z,59.78
2023-02-07T03:30:44.206Z,60.75
2023-02-07T03:31:44.195Z,57.69
2023-02-07T03:32:44.195Z,58.17
2023-02-07T03:33:44.167Z,60.75
2023-02-07T03:34:44.134Z,64.94
2023-02-07T03:35:44.134Z,60.26
2023-02-07T03:36:44.122Z,61.71
2023-02-07T03:37:44.136Z,63.81
2023-02-07T03:38:44.099Z,60.75
2023-02-07T03:39:44.094Z,61.23
2023-02-07T03:40:44.081Z,59.46
2023-02-07T03:41:44.069Z,62.52
2023-02-07T03:42:44.090Z,62.36
2023-02-07T03:43:44.060Z,63.16
2023-02-07T03:44:44.042Z,63.97
2023-02-07T03:45:44.029Z,63.81
2023-02-07T03:46:44.115Z,63.65
2023-02-07T03:47:44.030Z,62.68
2023-02-07T03:48:44.010Z,66.06
2023-02-07T03:49:43.991Z,61.71
2023-02-07T03:50:43.980Z,61.87
2023-02-07T03:51:43.983Z,65.90
2023-02-07T03:52:43.978Z,60.59
2023-02-07T03:53:43.957Z,62.04
2023-02-07T03:54:43.968Z,65.90
2023-02-07T03:55:43.937Z,63.65
2023-02-07T03:56:43.926Z,62.36
2023-02-07T03:57:43.942Z,60.75
2023-02-07T03:58:43.908Z,61.87
2023-02-07T03:59:43.901Z,61.39
2023-02-07T04:00:43.893Z,61.23
2023-02-07T04:01:43.876Z,61.23
2023-02-07T04:02:43.893Z,62.52
2023-02-07T04:03:43.862Z,59.46
2023-02-07T04:04:43.849Z,61.87
2023-02-07T04:05:43.832Z,62.20
2023-02-07T04:06:43.824Z,62.36
2023-02-07T04:07:43.832Z,60.42
2023-02-07T04:08:43.806Z,61.39
2023-02-07T04:09:43.817Z,62.36
2023-02-07T04:10:43.796Z,62.52
2023-02-07T04:11:43.783Z,61.39
2023-02-07T04:12:43.814Z,61.07
2023-02-07T04:13:43.757Z,63.97
2023-02-07T04:14:43.752Z,63.16
2023-02-07T04:15:43.744Z,61.55
2023-02-07T04:16:43.730Z,65.58
2023-02-07T04:17:43.745Z,67.03
2023-02-07T04:18:43.707Z,61.71
2023-02-07T04:19:43.705Z,63.16
2023-02-07T04:20:43.683Z,66.39
2023-02-07T04:21:44.677Z,61.87
2023-02-07T04:22:43.694Z,65.26
2023-02-07T04:23:43.666Z,66.71
2023-02-07T04:24:43.656Z,61.39
2023-02-07T04:25:43.650Z,59.78
2023-02-07T04:26:43.630Z,63.97
2023-02-07T04:27:43.645Z,64.29
2023-02-07T04:28:43.609Z,65.58
2023-02-07T04:29:43.612Z,64.13
2023-02-07T04:30:43.618Z,64.78
2023-02-07T04:31:43.631Z,63.81
2023-02-07T04:32:43.586Z,63.33
2023-02-07T04:33:43.583Z,63.97
2023-02-07T04:34:43.563Z,65.26
2023-02-07T04:35:43.537Z,67.84
2023-02-07T04:36:43.529Z,66.39
2023-02-07T04:37:43.523Z,66.87
2023-02-07T04:38:43.533Z,66.87
2023-02-07T04:39:43.503Z,67.35
2023-02-07T04:40:43.484Z,68.48
2023-02-07T04:41:43.486Z,67.19
2023-02-07T04:42:43.469Z,65.10
2023-02-07T04:43:43.512Z,63.49
2023-02-07T04:44:43.462Z,68.16
2023-02-07T04:45:43.466Z,67.68
2023-02-07T04:46:43.433Z,67.35
2023-02-07T04:47:43.422Z,66.39
2023-02-07T04:48:43.452Z,64.94
2023-02-07T04:49:43.402Z,67.19
2023-02-07T04:50:43.398Z,67.84
2023-02-07T04:51:43.386Z,66.55
2023-02-07T04:52:43.389Z,66.39
2023-02-07T04:53:43.422Z,66.55
2023-02-07T04:54:43.355Z,68.48
2023-02-07T04:55:43.349Z,69.45
2023-02-07T04:56:43.340Z,64.94
2023-02-07T04:57:43.343Z,65.58
2023-02-07T04:58:43.341Z,66.39
2023-02-07T04:59:43.300Z,66.71
2023-02-07T05:00:43.292Z,67.51
2023-02-07T05:01:43.296Z,68.00
2023-02-07T05:02:43.276Z,67.84
2023-02-07T05:03:43.296Z,66.06
2023-02-07T05:04:43.306Z,65.58
2023-02-07T05:05:43.253Z,67.51
2023-02-07T05:06:43.269Z,67.84
2023-02-07T05:07:43.240Z,66.06
2023-02-07T05:08:43.272Z,67.84
2023-02-07T05:09:43.219Z,67.03
2023-02-07T05:10:43.199Z,66.23
2023-02-07T05:11:43.198Z,65.26
2023-02-07T05:12:43.185Z,66.87
2023-02-07T05:13:43.204Z,66.55
2023-02-07T05:14:43.176Z,66.06
2023-02-07T05:15:43.167Z,67.03
2023-02-07T05:16:43.202Z,68.64
2023-02-07T05:17:43.161Z,67.51
2023-02-07T05:18:43.147Z,65.74
2023-02-07T05:19:43.115Z,66.87
2023-02-07T05:20:43.114Z,66.71
2023-02-07T05:21:43.097Z,65.90
2023-02-07T05:22:43.083Z,65.58
2023-02-07T05:23:43.101Z,67.03
2023-02-07T05:24:43.071Z,67.51
2023-02-07T05:25:43.064Z,68.16
2023-02-07T05:26:43.049Z,69.29
2023-02-07T05:27:43.044Z,68.48
2023-02-07T05:28:43.067Z,71.22
2023-02-07T05:29:43.028Z,69.45
2023-02-07T05:30:43.095Z,70.42
2023-02-07T05:31:43.090Z,70.74
2023-02-07T05:32:42.999Z,71.06
2023-02-07T05:33:43.004Z,67.03
2023-02-07T05:34:42.978Z,71.38
2023-02-07T05:35:42.979Z,70.09
2023-02-07T05:36:42.964Z,69.93
2023-02-07T05:37:42.952Z,70.25
2023-02-07T05:38:42.947Z,70.58
2023-02-07T05:39:42.918Z,70.42
2023-02-07T05:40:42.908Z,70.90
2023-02-07T05:41:42.898Z,68.80
2023-02-07T05:42:42.885Z,71.06
2023-02-07T05:43:42.912Z,70.42
2023-02-07T05:44:42.866Z,69.77
2023-02-07T05:45:42.860Z,71.38
2023-02-07T05:46:42.847Z,71.38
2023-02-07T05:47:42.848Z,72.35
2023-02-07T05:48:42.849Z,71.22
2023-02-07T05:49:42.821Z,71.22
2023-02-07T05:50:42.813Z,70.09
2023-02-07T05:51:42.799Z,69.45
2023-02-07T05:52:42.786Z,68.64
2023-02-07T05:53:42.804Z,69.45
2023-02-07T05:54:42.782Z,69.93
2023-02-07T05:55:42.764Z,70.74
2023-02-07T05:56:42.760Z,69.61
2023-02-07T05:57:42.743Z,68.00
2023-02-07T05:58:42.762Z,68.32
2023-02-07T05:59:42.729Z,69.29
2023-02-07T06:00:42.704Z,68.96
2023-02-07T06:01:42.701Z,70.25
2023-02-07T06:02:42.740Z,69.45
2023-02-07T06:03:42.717Z,70.25
2023-02-07T06:04:42.690Z,70.58
2023-02-07T06:05:42.652Z,69.45
2023-02-07T06:06:44.152Z,69.93
2023-02-07T06:07:43.645Z,68.00
2023-02-07T06:08:42.625Z,69.13
2023-02-07T06:09:42.637Z,69.29
2023-02-07T06:10:42.615Z,69.45
2023-02-07T06:11:42.598Z,69.45
2023-02-07T06:12:42.590Z,70.42
2023-02-07T06:13:42.582Z,69.13
2023-02-07T06:14:42.662Z,67.84
2023-02-07T06:15:42.586Z,69.77
2023-02-07T06:16:42.559Z,69.77
2023-02-07T06:17:42.544Z,68.80
2023-02-07T06:18:42.541Z,68.80
2023-02-07T06:19:43.547Z,67.19
2023-02-07T06:20:42.517Z,65.90
2023-02-07T06:21:46.678Z,69.29
2023-02-07T06:22:43.510Z,68.32
2023-02-07T06:23:42.497Z,68.64
2023-02-07T06:24:42.497Z,68.64
2023-02-07T06:25:42.464Z,66.39
2023-02-07T06:26:42.469Z,69.29
2023-02-07T06:27:42.473Z,68.32
2023-02-07T06:28:42.469Z,69.93
2023-02-07T06:29:42.434Z,68.16
2023-02-07T06:30:42.436Z,68.96
2023-02-07T06:31:42.446Z,68.96
2023-02-07T06:32:42.413Z,67.84
2023-02-07T06:33:42.417Z,67.19
2023-02-07T06:34:42.409Z,68.32
2023-02-07T06:35:42.380Z,68.64
2023-02-07T06:36:42.378Z,67.19
2023-02-07T06:37:42.352Z,67.68
2023-02-07T06:38:42.352Z,68.80
2023-02-07T06:39:42.373Z,68.32
2023-02-07T06:40:42.340Z,69.13
2023-02-07T06:41:42.322Z,70.90
2023-02-07T06:42:42.315Z,69.29
2023-02-07T06:43:42.304Z,69.13
2023-02-07T06:44:42.317Z,69.93
2023-02-07T06:45:42.287Z,70.42
2023-02-07T06:46:42.281Z,69.29
2023-02-07T06:47:42.268Z,68.48
2023-02-07T06:48:42.260Z,70.25
2023-02-07T06:49:42.270Z,68.96
2023-02-07T06:50:42.251Z,69.77
2023-02-07T06:51:42.232Z,68.00
2023-02-07T06:52:42.224Z,69.13
2023-02-07T06:53:42.230Z,68.16
2023-02-07T06:54:42.233Z,67.19
2023-02-07T06:55:42.193Z,68.80
2023-02-07T06:56:42.209Z,66.39
2023-02-07T06:57:42.166Z,68.48
2023-02-07T06:58:42.186Z,67.35
2023-02-07T06:59:42.152Z,67.51
2023-02-07T07:00:42.145Z,67.68
2023-02-07T07:01:42.336Z,66.23
2023-02-07T07:02:42.169Z,66.87
2023-02-07T07:03:42.148Z,67.03
2023-02-07T07:04:42.111Z,67.68
2023-02-07T07:05:42.098Z,68.48
2023-02-07T07:06:42.084Z,67.35
2023-02-07T07:07:42.080Z,67.68
2023-02-07T07:08:42.095Z,67.35
2023-02-07T07:09:42.074Z,66.55
2023-02-07T07:10:43.056Z,65.74
2023-02-07T07:11:42.046Z,66.23
2023-02-07T07:12:42.034Z,65.90
2023-02-07T07:13:42.049Z,66.23
2023-02-07T07:14:42.010Z,68.32
2023-02-07T07:15:42.009Z,67.51
2023-02-07T07:16:42.002Z,65.42
2023-02-07T07:17:42.008Z,67.84
2023-02-07T07:18:42.009Z,66.87
2023-02-07T07:19:41.973Z,66.55
2023-02-07T07:20:41.960Z,64.94
2023-02-07T07:21:41.943Z,65.26
2023-02-07T07:22:41.937Z,64.13
2023-02-07T07:23:41.947Z,64.94
2023-02-07T07:24:41.913Z,64.78
2023-02-07T07:25:41.906Z,65.90
2023-02-07T07:26:49.549Z,67.03
2023-02-07T07:27:43.890Z,66.23
2023-02-07T07:28:41.922Z,66.71
2023-02-07T07:29:41.873Z,65.74
2023-02-07T07:30:41.878Z,66.06
2023-02-07T07:31:41.888Z,63.81
2023-02-07T07:32:41.846Z,65.42
2023-02-07T07:33:41.861Z,66.23
2023-02-07T07:34:41.861Z,64.61
2023-02-07T07:35:42.043Z,64.45
2023-02-07T07:36:41.823Z,63.49
2023-02-07T07:37:41.825Z,65.42
2023-02-07T07:38:44.631Z,62.84
2023-02-07T07:39:43.774Z,62.68
2023-02-07T07:40:41.781Z,63.65
2023-02-07T07:41:41.774Z,63.49
2023-02-07T07:43:13.726Z,63.81
2023-02-07T07:43:41.738Z,65.10
2023-02-07T07:44:41.727Z,64.29
2023-02-07T07:45:41.733Z,64.61
2023-02-07T07:46:41.784Z,63.16
2023-02-07T07:47:41.690Z,63.00
2023-02-07T07:48:42.683Z,63.97
2023-02-07T07:49:41.670Z,63.81
2023-02-07T07:50:42.123Z,63.49
2023-02-07T07:51:41.652Z,63.97
2023-02-07T07:52:41.636Z,62.84
2023-02-07T07:53:41.641Z,63.97
2023-02-07T07:54:41.625Z,65.58
2023-02-07T07:55:41.639Z,63.49
2023-02-07T07:56:41.603Z,64.78
2023-02-07T07:57:41.600Z,64.78
2023-02-07T07:58:41.604Z,62.84
2023-02-07T07:59:41.642Z,62.52
2023-02-07T08:00:41.996Z,61.87
2023-02-07T08:01:41.549Z,61.55
2023-02-07T08:02:41.562Z,65.74
2023-02-07T08:03:41.566Z,61.07
2023-02-07T08:04:41.555Z,64.61
2023-02-07T08:05:41.512Z,62.52
2023-02-07T08:06:41.502Z,62.20
2023-02-07T08:07:41.513Z,63.65
2023-02-07T08:08:41.483Z,62.20
2023-02-07T08:09:41.511Z,63.49
2023-02-07T08:10:41.502Z,63.49
2023-02-07T08:11:41.450Z,61.55
2023-02-07T08:12:43.268Z,61.07
2023-02-07T08:13:41.437Z,63.65
2023-02-07T08:14:41.452Z,63.00
2023-02-07T08:15:41.423Z,63.49
2023-02-07T08:16:41.409Z,62.36
2023-02-07T08:17:41.397Z,63.33
2023-02-07T08:18:41.389Z,62.04
2023-02-07T08:19:41.395Z,60.26
2023-02-07T08:20:41.544Z,61.07
2023-02-07T08:21:42.471Z,62.04
2023-02-07T08:22:41.352Z,61.71
2023-02-07T08:23:41.349Z,62.04
2023-02-07T08:24:41.352Z,62.36
2023-02-07T08:25:41.336Z,63.16
2023-02-07T08:26:41.309Z,61.39
2023-02-07T08:27:41.290Z,62.20
2023-02-07T08:28:41.290Z,63.33
2023-02-07T08:29:41.308Z,62.52
2023-02-07T08:30:41.529Z,63.00
2023-02-07T08:31:41.299Z,60.91
2023-02-07T08:32:41.249Z,62.20
2023-02-07T08:33:41.246Z,61.07
2023-02-07T08:34:41.247Z,62.52
2023-02-07T08:35:41.223Z,63.81
2023-02-07T08:36:41.216Z,61.55
2023-02-07T08:37:41.199Z,61.71
2023-02-07T08:38:41.202Z,60.91
2023-02-07T08:39:41.256Z,62.04
2023-02-07T08:40:41.417Z,61.07
2023-02-07T08:41:41.234Z,61.23
2023-02-07T08:42:41.152Z,62.04
2023-02-07T08:43:41.146Z,61.87
2023-02-07T08:44:41.174Z,61.71
2023-02-07T08:45:41.229Z,63.65
2023-02-07T08:46:41.132Z,61.87
2023-02-07T08:47:41.104Z,61.87
2023-02-07T08:48:41.094Z,63.33
2023-02-07T08:49:41.112Z,62.20
2023-02-07T08:50:41.327Z,61.71
2023-02-07T08:51:41.080Z,61.39
2023-02-07T08:52:41.062Z,60.75
2023-02-07T08:53:41.065Z,62.52
2023-02-07T08:54:41.055Z,62.04
2023-02-07T08:55:41.031Z,62.04
2023-02-07T08:56:41.022Z,62.20
2023-02-07T08:57:41.007Z,63.00
2023-02-07T08:58:41.041Z,62.68
2023-02-07T08:59:41.044Z,63.16
2023-02-07T09:00:41.355Z,62.36
2023-02-07T09:01:40.978Z,61.23
2023-02-07T09:02:41.049Z,62.20
2023-02-07T09:03:40.954Z,61.71
2023-02-07T09:04:41.957Z,63.00
2023-02-07T09:05:40.939Z,62.04
2023-02-07T09:06:40.929Z,61.39
2023-02-07T09:07:40.917Z,62.68
2023-02-07T09:08:40.904Z,60.91
2023-02-07T09:09:40.908Z,61.07
2023-02-07T09:10:41.429Z,60.91
2023-02-07T09:11:40.945Z,60.26
2023-02-07T09:12:40.876Z,59.14
2023-02-07T09:13:40.854Z,58.33
2023-02-07T09:14:40.886Z,63.00
2023-02-07T09:15:40.839Z,63.97
2023-02-07T09:16:40.875Z,63.97
2023-02-07T09:17:40.817Z,61.07
2023-02-07T09:18:40.805Z,62.04
2023-02-07T09:19:40.814Z,62.04
2023-02-07T09:20:41.178Z,63.33
2023-02-07T09:21:40.776Z,63.33
2023-02-07T09:22:40.768Z,63.00
2023-02-07T09:23:40.791Z,61.39
2023-02-07T09:24:40.796Z,63.97
2023-02-07T09:25:41.965Z,63.33
2023-02-07T09:26:41.725Z,59.62
2023-02-07T09:27:40.730Z,60.42
2023-02-07T09:28:40.715Z,59.46
2023-02-07T09:29:40.722Z,60.26
2023-02-07T09:30:40.796Z,63.65
2023-02-07T09:31:40.756Z,58.81
2023-02-07T09:32:40.676Z,63.49
2023-02-07T09:33:40.692Z,64.61
2023-02-07T09:34:40.675Z,63.16
2023-02-07T09:35:40.652Z,62.20
2023-02-07T09:36:40.647Z,64.61
2023-02-07T09:37:49.209Z,62.04
2023-02-07T09:38:42.627Z,62.20
2023-02-07T09:39:40.655Z,62.20
2023-02-07T09:40:40.761Z,62.52
2023-02-07T09:41:40.610Z,64.61
2023-02-07T09:42:40.592Z,62.04
2023-02-07T09:43:40.713Z,60.91
2023-02-07T09:44:40.877Z,59.78
2023-02-07T09:45:40.634Z,63.81
2023-02-07T09:46:40.739Z,63.81
2023-02-07T09:47:40.557Z,63.65
2023-02-07T09:48:40.534Z,63.33
2023-02-07T09:49:40.571Z,62.04
2023-02-07T09:50:40.942Z,61.07
2023-02-07T09:51:40.532Z,62.20
2023-02-07T09:52:40.501Z,61.39
2023-02-07T09:53:40.565Z,63.00
2023-02-07T09:54:40.493Z,61.39
2023-02-07T09:55:40.733Z,63.00
2023-02-07T09:56:40.471Z,63.33
2023-02-07T09:57:40.462Z,63.16
2023-02-07T09:58:40.964Z,64.13
2023-02-07T09:59:41.484Z,62.04
2023-02-07T10:00:40.751Z,61.71
2023-02-07T10:01:40.441Z,62.20
2023-02-07T10:02:40.438Z,60.91
2023-02-07T10:03:40.411Z,62.52
2023-02-07T10:04:40.483Z,62.84
2023-02-07T10:05:40.411Z,62.68
2023-02-07T10:06:40.373Z,61.07
2023-02-07T10:07:40.373Z,61.23
2023-02-07T10:08:41.344Z,63.33
2023-02-07T10:09:41.385Z,61.55
2023-02-07T10:10:40.345Z,59.14
2023-02-07T10:11:40.409Z,58.65
2023-02-07T10:12:40.328Z,59.30
2023-02-07T10:13:40.316Z,59.78
2023-02-07T10:14:40.312Z,61.39
2023-02-07T10:15:40.346Z,60.91
2023-02-07T10:16:40.289Z,59.30
2023-02-07T10:17:40.282Z,61.87
2023-02-07T10:18:41.325Z,61.39
2023-02-07T10:19:40.293Z,61.07
2023-02-07T10:20:40.570Z,61.71
2023-02-07T10:21:40.246Z,60.10
2023-02-07T10:22:40.233Z,63.65
2023-02-07T10:23:40.234Z,62.04
2023-02-07T10:24:40.228Z,61.39
2023-02-07T10:25:40.248Z,62.52
2023-02-07T10:26:40.260Z,63.97
2023-02-07T10:27:40.188Z,57.85
2023-02-07T10:28:40.193Z,59.30
2023-02-07T10:29:40.257Z,59.46
2023-02-07T10:30:40.557Z,61.87
2023-02-07T10:31:40.219Z,60.91
2023-02-07T10:32:40.181Z,63.00
2023-02-07T10:33:40.143Z,58.97
2023-02-07T10:34:40.153Z,59.94
2023-02-07T10:35:40.173Z,60.26
2023-02-07T10:36:40.143Z,59.94
2023-02-07T10:37:40.116Z,59.62
2023-02-07T10:38:40.117Z,61.39
2023-02-07T10:39:40.114Z,61.71
2023-02-07T10:40:40.505Z,59.78
2023-02-07T10:41:40.155Z,60.91
2023-02-07T10:42:40.151Z,61.87
2023-02-07T10:43:40.069Z,61.39
2023-02-07T10:44:40.061Z,59.94
2023-02-07T10:45:40.055Z,59.46
2023-02-07T10:46:40.119Z,59.14
2023-02-07T10:47:40.059Z,61.39
2023-02-07T10:48:40.047Z,62.84
2023-02-07T10:49:40.029Z,60.91
2023-02-07T10:50:40.028Z,61.39
2023-02-07T10:51:40.028Z,58.01
2023-02-07T10:52:40.005Z,61.39
2023-02-07T10:53:49.183Z,62.52
2023-02-07T10:54:41.979Z,61.39
2023-02-07T10:55:39.996Z,61.23
2023-02-07T10:56:41.897Z,63.33
2023-02-07T10:57:42.143Z,59.30
2023-02-07T10:58:39.950Z,61.55
2023-02-07T10:59:39.940Z,64.45
2023-02-07T11:00:40.296Z,59.14
2023-02-07T11:01:39.953Z,59.46
2023-02-07T11:02:39.980Z,61.55
2023-02-07T11:03:39.907Z,63.65
2023-02-07T11:04:39.890Z,63.00
2023-02-07T11:05:40.158Z,61.23
2023-02-07T11:06:39.928Z,62.68
2023-02-07T11:07:47.707Z,63.97
2023-02-07T11:08:41.876Z,61.71
2023-02-07T11:09:39.865Z,63.16
2023-02-07T11:10:39.876Z,59.78
2023-02-07T11:11:39.946Z,60.59
2023-02-07T11:12:39.835Z,59.94
2023-02-07T11:13:39.857Z,60.26
2023-02-07T11:14:42.757Z,58.33
2023-02-07T11:15:41.832Z,61.07
2023-02-07T11:16:39.797Z,64.61
2023-02-07T11:17:39.823Z,64.61
2023-02-07T11:18:39.780Z,62.36
2023-02-07T11:19:39.836Z,61.39
2023-02-07T11:20:39.782Z,62.84
2023-02-07T11:21:39.764Z,63.81
2023-02-07T11:22:39.765Z,62.52
2023-02-07T11:23:39.761Z,61.07
2023-02-07T11:24:39.741Z,61.07
2023-02-07T11:25:40.094Z,61.55
2023-02-07T11:26:39.732Z,62.68
2023-02-07T11:27:39.719Z,63.49
2023-02-07T11:28:40.747Z,64.13
2023-02-07T11:29:39.697Z,60.26
2023-02-07T11:30:39.788Z,61.23
2023-02-07T11:31:39.707Z,62.52
2023-02-07T11:32:39.675Z,64.78
2023-02-07T11:33:39.661Z,62.36
2023-02-07T11:34:39.640Z,63.81
2023-02-07T11:35:40.963Z,60.59
2023-02-07T11:36:39.635Z,62.84
2023-02-07T11:37:39.626Z,62.52
2023-02-07T11:38:39.645Z,64.29
2023-02-07T11:39:39.613Z,62.20
2023-02-07T11:40:39.626Z,61.23
2023-02-07T11:41:39.591Z,60.91
2023-02-07T11:42:39.582Z,62.20
2023-02-07T11:43:39.602Z,59.94
2023-02-07T11:44:39.618Z,62.68
2023-02-07T11:45:39.844Z,61.39
2023-02-07T11:46:39.592Z,59.46
2023-02-07T11:47:39.535Z,61.55
2023-02-07T11:48:39.554Z,60.59
2023-02-07T11:49:39.539Z,60.75
2023-02-07T11:50:39.980Z,61.39
2023-02-07T11:51:39.499Z,59.78
2023-02-07T11:52:39.495Z,59.46
2023-02-07T11:53:39.488Z,61.07
2023-02-07T11:54:39.494Z,64.13
2023-02-07T11:55:39.819Z,62.52
2023-02-07T11:56:39.460Z,60.10
2023-02-07T11:57:39.471Z,60.26
2023-02-07T11:58:39.464Z,61.23
2023-02-07T11:59:39.429Z,62.36
2023-02-07T12:00:39.428Z,61.87
2023-02-07T12:01:40.447Z,61.39
2023-02-07T12:02:39.407Z,60.10
2023-02-07T12:03:39.423Z,60.91
2023-02-07T12:04:39.410Z,62.04
2023-02-07T12:05:39.752Z,60.91
2023-02-07T12:06:39.382Z,60.91
2023-02-07T12:07:39.360Z,61.39
2023-02-07T12:08:39.353Z,64.29
2023-02-07T12:09:39.356Z,60.26
2023-02-07T12:10:39.342Z,62.04
2023-02-07T12:11:39.321Z,60.75
2023-02-07T12:12:39.355Z,62.52
2023-02-07T12:13:39.372Z,64.94
2023-02-07T12:14:39.296Z,63.16
2023-02-07T12:15:39.645Z,62.36
2023-02-07T12:16:39.267Z,60.91
2023-02-07T12:17:39.287Z,62.52
2023-02-07T12:18:39.266Z,61.87
2023-02-07T12:19:39.272Z,61.07
2023-02-07T12:20:39.252Z,61.55
2023-02-07T12:21:39.227Z,63.16
2023-02-07T12:22:42.044Z,61.07
2023-02-07T12:23:43.328Z,59.14
2023-02-07T12:24:40.221Z,59.94
2023-02-07T12:25:39.470Z,61.87
2023-02-07T12:26:39.218Z,62.04
2023-02-07T12:27:39.176Z,61.87
2023-02-07T12:28:39.164Z,59.62
2023-02-07T12:29:39.148Z,58.33
2023-02-07T12:30:39.161Z,58.81
2023-02-07T12:31:39.299Z,62.52
2023-02-07T12:32:39.337Z,62.84
2023-02-07T12:33:39.118Z,62.52
2023-02-07T12:34:39.106Z,62.84
2023-02-07T12:35:41.108Z,59.94
2023-02-07T12:36:41.105Z,60.10
2023-02-07T12:37:39.074Z,62.36
2023-02-07T12:38:39.060Z,61.71
2023-02-07T12:39:39.051Z,59.62
2023-02-07T12:40:39.079Z,60.26
2023-02-07T12:41:39.059Z,61.23
2023-02-07T12:42:39.010Z,61.07
2023-02-07T12:43:39.039Z,63.16
2023-02-07T12:44:39.012Z,64.29
2023-02-07T12:45:39.273Z,63.00
2023-02-07T12:46:38.997Z,61.55
2023-02-07T12:47:38.966Z,61.71
2023-02-07T12:48:38.961Z,62.04
2023-02-07T12:49:38.946Z,60.10
2023-02-07T12:50:38.941Z,61.39
2023-02-07T12:51:38.958Z,58.33
2023-02-07T12:52:38.970Z,60.91